sensor_id;sensor_type;location;lat;lon;timestamp;P1;durP1;ratioP1;P2;durP2;ratioP2
73107;SDS011;61559;50.476;15.588;2023-02-01T00:00:29;5.50;;;3.00;;
73107;SDS011;61559;50.476;15.588;2023-02-01T00:03:20;4.60;;;1.80;;
73107;SDS011;61559;50.476;15.588;2023-02-01T00:05:58;5.20;;;2.60;;
73107;SDS011;61559;50.476;15.588;2023-02-01T00:08:29;3.70;;;2.30;;
73107;SDS011;61559;50.476;15.588;2023-02-01T00:11:01;4.00;;;2.10;;
73107;SDS011;61559;50.476;15.588;2023-02-01T00:13:35;7.80;;;3.20;;
73107;SDS011;61559;50.476;15.588;2023-02-01T00:16:07;13.90;;;4.50;;
73107;SDS011;61559;50.476;15.588;2023-02-01T00:18:40;5.00;;;2.70;;
73107;SDS011;61559;50.476;15.588;2023-02-01T00:21:12;7.70;;;3.30;;
73107;SDS011;61559;50.476;15.588;2023-02-01T00:23:44;7.00;;;3.10;;
73107;SDS011;61559;50.476;15.588;2023-02-01T00:26:16;7.60;;;2.80;;
73107;SDS011;61559;50.476;15.588;2023-02-01T00:28:49;5.60;;;2.40;;
73107;SDS011;61559;50.476;15.588;2023-02-01T00:31:20;11.60;;;4.40;;
73107;SDS011;61559;50.476;15.588;2023-02-01T00:36:21;6.00;;;3.00;;
73107;SDS011;61559;50.476;15.588;2023-02-01T00:38:52;10.00;;;2.70;;
73107;SDS011;61559;50.476;15.588;2023-02-01T00:41:23;6.50;;;3.30;;
73107;SDS011;61559;50.476;15.588;2023-02-01T00:43:54;6.80;;;3.00;;
73107;SDS011;61559;50.476;15.588;2023-02-01T00:48:55;6.20;;;2.30;;
73107;SDS011;61559;50.476;15.588;2023-02-01T00:51:27;8.50;;;3.90;;
73107;SDS011;61559;50.476;15.588;2023-02-01T00:53:59;3.20;;;1.80;;
73107;SDS011;61559;50.476;15.588;2023-02-01T00:56:31;3.70;;;1.90;;
73107;SDS011;61559;50.476;15.588;2023-02-01T00:59:02;7.10;;;2.20;;
73107;SDS011;61559;50.476;15.588;2023-02-01T01:01:33;7.00;;;2.70;;
73107;SDS011;61559;50.476;15.588;2023-02-01T01:04:04;7.60;;;3.10;;
73107;SDS011;61559;50.476;15.588;2023-02-01T01:06:36;5.90;;;2.80;;
73107;SDS011;61559;50.476;15.588;2023-02-01T01:09:07;5.90;;;2.30;;
73107;SDS011;61559;50.476;15.588;2023-02-01T01:11:38;4.30;;;2.00;;
73107;SDS011;61559;50.476;15.588;2023-02-01T01:14:10;3.70;;;1.60;;
73107;SDS011;61559;50.476;15.588;2023-02-01T01:19:11;5.20;;;1.60;;
73107;SDS011;61559;50.476;15.588;2023-02-01T01:21:42;5.50;;;2.20;;
73107;SDS011;61559;50.476;15.588;2023-02-01T01:24:13;7.60;;;1.90;;
73107;SDS011;61559;50.476;15.588;2023-02-01T01:29:14;4.80;;;1.80;;
73107;SDS011;61559;50.476;15.588;2023-02-01T01:31:45;6.70;;;2.60;;
73107;SDS011;61559;50.476;15.588;2023-02-01T01:34:16;7.20;;;2.20;;
73107;SDS011;61559;50.476;15.588;2023-02-01T01:36:48;5.00;;;2.30;;
73107;SDS011;61559;50.476;15.588;2023-02-01T01:39:19;7.60;;;1.90;;
73107;SDS011;61559;50.476;15.588;2023-02-01T01:41:50;7.60;;;2.90;;
73107;SDS011;61559;50.476;15.588;2023-02-01T01:47:29;5.40;;;1.70;;
73107;SDS011;61559;50.476;15.588;2023-02-01T01:50:05;12.00;;;3.50;;
73107;SDS011;61559;50.476;15.588;2023-02-01T01:52:42;5.40;;;2.40;;
73107;SDS011;61559;50.476;15.588;2023-02-01T01:55:16;8.20;;;3.00;;
73107;SDS011;61559;50.476;15.588;2023-02-01T01:57:50;9.00;;;2.70;;
73107;SDS011;61559;50.476;15.588;2023-02-01T02:00:24;8.80;;;2.70;;
73107;SDS011;61559;50.476;15.588;2023-02-01T02:02:56;13.00;;;2.70;;
73107;SDS011;61559;50.476;15.588;2023-02-01T02:05:32;8.50;;;2.70;;
73107;SDS011;61559;50.476;15.588;2023-02-01T02:08:04;5.40;;;1.60;;
73107;SDS011;61559;50.476;15.588;2023-02-01T02:10:35;10.60;;;3.40;;
73107;SDS011;61559;50.476;15.588;2023-02-01T02:13:24;8.70;;;1.80;;
73107;SDS011;61559;50.476;15.588;2023-02-01T02:16:00;13.20;;;3.20;;
73107;SDS011;61559;50.476;15.588;2023-02-01T02:18:55;5.90;;;1.70;;
73107;SDS011;61559;50.476;15.588;2023-02-01T02:21:41;10.20;;;3.20;;
73107;SDS011;61559;50.476;15.588;2023-02-01T02:24:27;11.40;;;2.60;;
73107;SDS011;61559;50.476;15.588;2023-02-01T02:27:24;7.20;;;2.50;;
73107;SDS011;61559;50.476;15.588;2023-02-01T02:30:10;11.50;;;2.70;;
73107;SDS011;61559;50.476;15.588;2023-02-01T02:33:21;5.90;;;1.60;;
73107;SDS011;61559;50.476;15.588;2023-02-01T02:36:10;9.70;;;2.70;;
73107;SDS011;61559;50.476;15.588;2023-02-01T02:38:50;10.90;;;2.20;;
73107;SDS011;61559;50.476;15.588;2023-02-01T02:41:31;7.40;;;1.90;;
73107;SDS011;61559;50.476;15.588;2023-02-01T02:44:28;14.50;;;3.40;;
73107;SDS011;61559;50.476;15.588;2023-02-01T02:47:23;6.60;;;2.00;;
73107;SDS011;61559;50.476;15.588;2023-02-01T02:50:04;11.50;;;2.70;;
73107;SDS011;61559;50.476;15.588;2023-02-01T02:52:59;6.20;;;1.80;;
73107;SDS011;61559;50.476;15.588;2023-02-01T02:55:54;6.60;;;2.10;;
73107;SDS011;61559;50.476;15.588;2023-02-01T02:58:44;5.90;;;1.70;;
73107;SDS011;61559;50.476;15.588;2023-02-01T03:01:35;8.90;;;1.90;;
73107;SDS011;61559;50.476;15.588;2023-02-01T03:04:26;5.90;;;1.90;;
73107;SDS011;61559;50.476;15.588;2023-02-01T03:06:57;5.60;;;1.60;;
73107;SDS011;61559;50.476;15.588;2023-02-01T03:09:43;5.10;;;1.70;;
73107;SDS011;61559;50.476;15.588;2023-02-01T03:12:16;4.10;;;1.20;;
73107;SDS011;61559;50.476;15.588;2023-02-01T03:15:08;5.90;;;2.20;;
73107;SDS011;61559;50.476;15.588;2023-02-01T03:17:42;10.80;;;2.30;;
73107;SDS011;61559;50.476;15.588;2023-02-01T03:20:15;7.60;;;2.40;;
73107;SDS011;61559;50.476;15.588;2023-02-01T03:22:49;4.00;;;1.50;;
73107;SDS011;61559;50.476;15.588;2023-02-01T03:25:23;5.50;;;2.00;;
73107;SDS011;61559;50.476;15.588;2023-02-01T03:27:59;6.20;;;1.90;;
73107;SDS011;61559;50.476;15.588;2023-02-01T03:30:34;10.50;;;3.10;;
73107;SDS011;61559;50.476;15.588;2023-02-01T03:33:11;5.70;;;1.80;;
73107;SDS011;61559;50.476;15.588;2023-02-01T03:35:53;10.90;;;2.50;;
73107;SDS011;61559;50.476;15.588;2023-02-01T03:38:31;7.60;;;2.20;;
73107;SDS011;61559;50.476;15.588;2023-02-01T03:41:09;5.20;;;1.60;;
73107;SDS011;61559;50.476;15.588;2023-02-01T03:43:49;8.60;;;2.40;;
73107;SDS011;61559;50.476;15.588;2023-02-01T03:46:27;5.80;;;2.40;;
73107;SDS011;61559;50.476;15.588;2023-02-01T03:49:03;9.30;;;2.50;;
73107;SDS011;61559;50.476;15.588;2023-02-01T03:51:39;11.20;;;2.70;;
73107;SDS011;61559;50.476;15.588;2023-02-01T03:54:12;6.00;;;2.10;;
73107;SDS011;61559;50.476;15.588;2023-02-01T03:56:46;5.30;;;1.70;;
73107;SDS011;61559;50.476;15.588;2023-02-01T03:59:19;6.10;;;2.10;;
73107;SDS011;61559;50.476;15.588;2023-02-01T04:01:52;8.50;;;2.70;;
73107;SDS011;61559;50.476;15.588;2023-02-01T04:04:23;8.90;;;2.60;;
73107;SDS011;61559;50.476;15.588;2023-02-01T04:06:54;5.80;;;3.00;;
73107;SDS011;61559;50.476;15.588;2023-02-01T04:09:25;6.00;;;1.90;;
73107;SDS011;61559;50.476;15.588;2023-02-01T04:11:56;7.00;;;2.00;;
73107;SDS011;61559;50.476;15.588;2023-02-01T04:16:57;7.60;;;2.00;;
73107;SDS011;61559;50.476;15.588;2023-02-01T04:19:30;12.00;;;2.70;;
73107;SDS011;61559;50.476;15.588;2023-02-01T04:22:01;13.00;;;4.80;;
73107;SDS011;61559;50.476;15.588;2023-02-01T04:24:32;31.90;;;11.80;;
73107;SDS011;61559;50.476;15.588;2023-02-01T04:27:04;27.80;;;10.20;;
73107;SDS011;61559;50.476;15.588;2023-02-01T04:29:35;30.80;;;11.00;;
73107;SDS011;61559;50.476;15.588;2023-02-01T04:32:06;8.50;;;3.80;;
73107;SDS011;61559;50.476;15.588;2023-02-01T04:34:38;4.10;;;2.10;;
73107;SDS011;61559;50.476;15.588;2023-02-01T04:37:09;4.90;;;1.50;;
73107;SDS011;61559;50.476;15.588;2023-02-01T04:39:40;12.20;;;5.40;;
73107;SDS011;61559;50.476;15.588;2023-02-01T04:42:11;6.10;;;3.80;;
73107;SDS011;61559;50.476;15.588;2023-02-01T04:44:43;7.40;;;2.80;;
73107;SDS011;61559;50.476;15.588;2023-02-01T04:47:14;19.40;;;5.30;;
73107;SDS011;61559;50.476;15.588;2023-02-01T04:49:45;11.90;;;4.40;;
73107;SDS011;61559;50.476;15.588;2023-02-01T04:52:16;6.40;;;2.10;;
73107;SDS011;61559;50.476;15.588;2023-02-01T04:54:47;5.50;;;2.40;;
73107;SDS011;61559;50.476;15.588;2023-02-01T04:57:18;5.20;;;1.90;;
73107;SDS011;61559;50.476;15.588;2023-02-01T04:59:49;7.10;;;2.80;;
73107;SDS011;61559;50.476;15.588;2023-02-01T05:02:20;11.20;;;2.70;;
73107;SDS011;61559;50.476;15.588;2023-02-01T05:04:51;14.40;;;3.70;;
73107;SDS011;61559;50.476;15.588;2023-02-01T05:07:24;10.40;;;3.00;;
73107;SDS011;61559;50.476;15.588;2023-02-01T05:09:55;8.90;;;2.60;;
73107;SDS011;61559;50.476;15.588;2023-02-01T05:12:26;8.40;;;2.60;;
73107;SDS011;61559;50.476;15.588;2023-02-01T05:15:14;9.30;;;2.20;;
73107;SDS011;61559;50.476;15.588;2023-02-01T05:17:45;16.90;;;5.70;;
73107;SDS011;61559;50.476;15.588;2023-02-01T05:20:17;34.50;;;13.10;;
73107;SDS011;61559;50.476;15.588;2023-02-01T05:22:49;10.50;;;4.80;;
73107;SDS011;61559;50.476;15.588;2023-02-01T05:25:20;7.80;;;3.00;;
73107;SDS011;61559;50.476;15.588;2023-02-01T05:27:51;7.80;;;3.20;;
73107;SDS011;61559;50.476;15.588;2023-02-01T05:30:23;8.50;;;3.10;;
73107;SDS011;61559;50.476;15.588;2023-02-01T05:32:54;14.70;;;4.60;;
73107;SDS011;61559;50.476;15.588;2023-02-01T05:35:25;9.30;;;3.50;;
73107;SDS011;61559;50.476;15.588;2023-02-01T05:37:56;10.70;;;3.50;;
73107;SDS011;61559;50.476;15.588;2023-02-01T05:40:27;11.30;;;4.70;;
73107;SDS011;61559;50.476;15.588;2023-02-01T05:42:58;10.30;;;2.80;;
73107;SDS011;61559;50.476;15.588;2023-02-01T05:45:29;7.40;;;2.60;;
73107;SDS011;61559;50.476;15.588;2023-02-01T05:48:01;16.30;;;4.80;;
73107;SDS011;61559;50.476;15.588;2023-02-01T05:50:32;11.40;;;3.40;;
73107;SDS011;61559;50.476;15.588;2023-02-01T05:53:03;9.50;;;3.50;;
73107;SDS011;61559;50.476;15.588;2023-02-01T05:55:34;7.70;;;2.20;;
73107;SDS011;61559;50.476;15.588;2023-02-01T05:58:06;8.70;;;3.10;;
73107;SDS011;61559;50.476;15.588;2023-02-01T06:00:38;7.40;;;2.70;;
73107;SDS011;61559;50.476;15.588;2023-02-01T06:03:09;11.60;;;4.90;;
73107;SDS011;61559;50.476;15.588;2023-02-01T06:05:40;9.20;;;4.30;;
73107;SDS011;61559;50.476;15.588;2023-02-01T06:08:12;19.20;;;5.10;;
73107;SDS011;61559;50.476;15.588;2023-02-01T06:10:45;11.90;;;3.80;;
73107;SDS011;61559;50.476;15.588;2023-02-01T06:13:16;14.60;;;5.40;;
73107;SDS011;61559;50.476;15.588;2023-02-01T06:15:48;11.00;;;3.60;;
73107;SDS011;61559;50.476;15.588;2023-02-01T06:18:20;20.10;;;7.40;;
73107;SDS011;61559;50.476;15.588;2023-02-01T06:20:54;34.90;;;11.70;;
73107;SDS011;61559;50.476;15.588;2023-02-01T06:23:28;10.80;;;4.00;;
73107;SDS011;61559;50.476;15.588;2023-02-01T06:26:00;15.00;;;5.60;;
73107;SDS011;61559;50.476;15.588;2023-02-01T06:28:32;24.50;;;7.80;;
73107;SDS011;61559;50.476;15.588;2023-02-01T06:31:04;32.10;;;10.90;;
73107;SDS011;61559;50.476;15.588;2023-02-01T06:33:36;13.90;;;6.90;;
73107;SDS011;61559;50.476;15.588;2023-02-01T06:36:09;62.60;;;19.70;;
73107;SDS011;61559;50.476;15.588;2023-02-01T06:38:41;14.20;;;5.70;;
73107;SDS011;61559;50.476;15.588;2023-02-01T06:41:12;25.00;;;9.40;;
73107;SDS011;61559;50.476;15.588;2023-02-01T06:43:44;11.80;;;4.30;;
73107;SDS011;61559;50.476;15.588;2023-02-01T06:46:15;13.40;;;5.20;;
73107;SDS011;61559;50.476;15.588;2023-02-01T06:48:46;17.00;;;6.60;;
73107;SDS011;61559;50.476;15.588;2023-02-01T06:51:20;19.30;;;6.70;;
73107;SDS011;61559;50.476;15.588;2023-02-01T06:53:53;13.20;;;5.30;;
73107;SDS011;61559;50.476;15.588;2023-02-01T06:56:24;11.30;;;3.70;;
73107;SDS011;61559;50.476;15.588;2023-02-01T06:58:55;11.80;;;4.60;;
73107;SDS011;61559;50.476;15.588;2023-02-01T07:01:26;59.90;;;16.50;;
73107;SDS011;61559;50.476;15.588;2023-02-01T07:03:57;17.40;;;5.90;;
73107;SDS011;61559;50.476;15.588;2023-02-01T07:06:29;27.20;;;9.90;;
73107;SDS011;61559;50.476;15.588;2023-02-01T07:09:00;14.60;;;5.20;;
73107;SDS011;61559;50.476;15.588;2023-02-01T07:11:31;17.60;;;5.70;;
73107;SDS011;61559;50.476;15.588;2023-02-01T07:16:32;8.40;;;3.30;;
73107;SDS011;61559;50.476;15.588;2023-02-01T07:19:03;5.90;;;2.10;;
73107;SDS011;61559;50.476;15.588;2023-02-01T07:21:35;6.90;;;3.50;;
73107;SDS011;61559;50.476;15.588;2023-02-01T07:24:06;2.90;;;1.50;;
73107;SDS011;61559;50.476;15.588;2023-02-01T07:26:37;4.20;;;1.50;;
73107;SDS011;61559;50.476;15.588;2023-02-01T07:29:08;8.30;;;1.70;;
73107;SDS011;61559;50.476;15.588;2023-02-01T07:31:40;5.00;;;1.80;;
73107;SDS011;61559;50.476;15.588;2023-02-01T07:34:11;6.50;;;2.10;;
73107;SDS011;61559;50.476;15.588;2023-02-01T07:36:42;6.50;;;2.20;;
73107;SDS011;61559;50.476;15.588;2023-02-01T07:39:13;6.40;;;2.70;;
73107;SDS011;61559;50.476;15.588;2023-02-01T07:41:45;5.00;;;1.60;;
73107;SDS011;61559;50.476;15.588;2023-02-01T07:44:16;8.60;;;2.30;;
73107;SDS011;61559;50.476;15.588;2023-02-01T07:46:51;5.10;;;2.20;;
73107;SDS011;61559;50.476;15.588;2023-02-01T07:49:22;7.00;;;2.40;;
73107;SDS011;61559;50.476;15.588;2023-02-01T07:54:23;5.30;;;2.90;;
73107;SDS011;61559;50.476;15.588;2023-02-01T07:56:54;6.30;;;2.60;;
73107;SDS011;61559;50.476;15.588;2023-02-01T07:59:26;11.50;;;3.90;;
73107;SDS011;61559;50.476;15.588;2023-02-01T08:04:26;11.10;;;3.20;;
73107;SDS011;61559;50.476;15.588;2023-02-01T08:06:57;10.70;;;3.80;;
73107;SDS011;61559;50.476;15.588;2023-02-01T08:09:29;6.20;;;2.00;;
73107;SDS011;61559;50.476;15.588;2023-02-01T08:12:03;3.70;;;2.20;;
73107;SDS011;61559;50.476;15.588;2023-02-01T08:14:34;4.40;;;1.90;;
73107;SDS011;61559;50.476;15.588;2023-02-01T08:17:05;7.00;;;2.10;;
73107;SDS011;61559;50.476;15.588;2023-02-01T08:19:36;3.80;;;2.30;;
73107;SDS011;61559;50.476;15.588;2023-02-01T08:22:07;5.80;;;1.90;;
73107;SDS011;61559;50.476;15.588;2023-02-01T08:24:38;5.90;;;2.40;;
73107;SDS011;61559;50.476;15.588;2023-02-01T08:27:09;5.80;;;3.20;;
73107;SDS011;61559;50.476;15.588;2023-02-01T08:29:40;10.60;;;3.20;;
73107;SDS011;61559;50.476;15.588;2023-02-01T08:32:12;5.30;;;2.50;;
73107;SDS011;61559;50.476;15.588;2023-02-01T08:37:12;6.10;;;2.50;;
73107;SDS011;61559;50.476;15.588;2023-02-01T08:39:43;5.80;;;3.00;;
73107;SDS011;61559;50.476;15.588;2023-02-01T08:45:02;7.10;;;3.50;;
73107;SDS011;61559;50.476;15.588;2023-02-01T08:50:03;9.50;;;4.00;;
73107;SDS011;61559;50.476;15.588;2023-02-01T08:52:35;7.10;;;3.00;;
73107;SDS011;61559;50.476;15.588;2023-02-01T08:55:07;6.80;;;3.00;;
73107;SDS011;61559;50.476;15.588;2023-02-01T08:57:39;15.80;;;3.60;;
73107;SDS011;61559;50.476;15.588;2023-02-01T09:00:13;7.50;;;3.00;;
73107;SDS011;61559;50.476;15.588;2023-02-01T09:02:47;8.50;;;2.90;;
73107;SDS011;61559;50.476;15.588;2023-02-01T09:05:18;5.00;;;2.80;;
73107;SDS011;61559;50.476;15.588;2023-02-01T09:07:51;10.80;;;3.50;;
73107;SDS011;61559;50.476;15.588;2023-02-01T09:10:22;8.90;;;2.20;;
73107;SDS011;61559;50.476;15.588;2023-02-01T09:13:02;7.30;;;3.00;;
73107;SDS011;61559;50.476;15.588;2023-02-01T09:15:33;5.30;;;2.40;;
73107;SDS011;61559;50.476;15.588;2023-02-01T09:18:04;7.60;;;3.60;;
73107;SDS011;61559;50.476;15.588;2023-02-01T09:20:35;6.50;;;2.70;;
73107;SDS011;61559;50.476;15.588;2023-02-01T09:23:07;2.30;;;1.60;;
73107;SDS011;61559;50.476;15.588;2023-02-01T09:25:38;4.90;;;3.20;;
73107;SDS011;61559;50.476;15.588;2023-02-01T09:28:09;5.00;;;1.90;;
73107;SDS011;61559;50.476;15.588;2023-02-01T09:30:40;3.10;;;1.50;;
73107;SDS011;61559;50.476;15.588;2023-02-01T09:33:12;6.90;;;3.10;;
73107;SDS011;61559;50.476;15.588;2023-02-01T09:35:42;6.00;;;2.10;;
73107;SDS011;61559;50.476;15.588;2023-02-01T09:38:13;6.70;;;2.70;;
73107;SDS011;61559;50.476;15.588;2023-02-01T09:40:45;6.00;;;2.70;;
73107;SDS011;61559;50.476;15.588;2023-02-01T09:43:20;7.00;;;3.00;;
73107;SDS011;61559;50.476;15.588;2023-02-01T09:46:02;5.00;;;2.80;;
73107;SDS011;61559;50.476;15.588;2023-02-01T09:48:45;9.50;;;3.90;;
73107;SDS011;61559;50.476;15.588;2023-02-01T09:51:19;7.30;;;3.20;;
73107;SDS011;61559;50.476;15.588;2023-02-01T09:53:55;12.70;;;6.00;;
73107;SDS011;61559;50.476;15.588;2023-02-01T09:56:35;30.50;;;10.70;;
73107;SDS011;61559;50.476;15.588;2023-02-01T09:59:15;19.10;;;6.80;;
73107;SDS011;61559;50.476;15.588;2023-02-01T10:01:55;14.40;;;6.00;;
73107;SDS011;61559;50.476;15.588;2023-02-01T10:04:27;5.80;;;3.40;;
73107;SDS011;61559;50.476;15.588;2023-02-01T10:07:04;5.60;;;3.20;;
73107;SDS011;61559;50.476;15.588;2023-02-01T10:09:51;6.10;;;3.30;;
73107;SDS011;61559;50.476;15.588;2023-02-01T10:12:36;10.70;;;3.80;;
73107;SDS011;61559;50.476;15.588;2023-02-01T10:18:32;4.90;;;2.80;;
73107;SDS011;61559;50.476;15.588;2023-02-01T10:21:17;4.80;;;1.90;;
73107;SDS011;61559;50.476;15.588;2023-02-01T10:24:01;4.50;;;2.20;;
73107;SDS011;61559;50.476;15.588;2023-02-01T10:26:46;4.90;;;3.10;;
73107;SDS011;61559;50.476;15.588;2023-02-01T10:29:26;4.80;;;2.70;;
73107;SDS011;61559;50.476;15.588;2023-02-01T10:32:09;3.70;;;1.90;;
73107;SDS011;61559;50.476;15.588;2023-02-01T10:34:47;9.00;;;4.30;;
73107;SDS011;61559;50.476;15.588;2023-02-01T10:37:25;7.30;;;3.20;;
73107;SDS011;61559;50.476;15.588;2023-02-01T10:40:00;6.90;;;3.30;;
73107;SDS011;61559;50.476;15.588;2023-02-01T10:42:41;4.60;;;2.70;;
73107;SDS011;61559;50.476;15.588;2023-02-01T10:45:16;6.70;;;2.60;;
73107;SDS011;61559;50.476;15.588;2023-02-01T10:47:50;6.60;;;3.20;;
73107;SDS011;61559;50.476;15.588;2023-02-01T10:50:29;5.00;;;2.20;;
73107;SDS011;61559;50.476;15.588;2023-02-01T10:53:06;9.10;;;3.80;;
73107;SDS011;61559;50.476;15.588;2023-02-01T10:55:48;5.50;;;2.60;;
73107;SDS011;61559;50.476;15.588;2023-02-01T10:58:20;7.20;;;3.20;;
73107;SDS011;61559;50.476;15.588;2023-02-01T11:00:58;5.90;;;2.90;;
73107;SDS011;61559;50.476;15.588;2023-02-01T11:03:33;6.20;;;2.90;;
73107;SDS011;61559;50.476;15.588;2023-02-01T11:06:16;6.10;;;2.60;;
73107;SDS011;61559;50.476;15.588;2023-02-01T11:08:52;5.40;;;2.20;;
73107;SDS011;61559;50.476;15.588;2023-02-01T11:11:25;3.60;;;2.70;;
73107;SDS011;61559;50.476;15.588;2023-02-01T11:13:57;10.10;;;5.50;;
73107;SDS011;61559;50.476;15.588;2023-02-01T11:16:33;6.60;;;2.50;;
73107;SDS011;61559;50.476;15.588;2023-02-01T11:19:06;6.00;;;2.30;;
73107;SDS011;61559;50.476;15.588;2023-02-01T11:21:43;4.90;;;2.40;;
73107;SDS011;61559;50.476;15.588;2023-02-01T11:24:19;19.40;;;8.00;;
73107;SDS011;61559;50.476;15.588;2023-02-01T11:26:56;8.80;;;3.10;;
73107;SDS011;61559;50.476;15.588;2023-02-01T11:29:34;10.40;;;4.60;;
73107;SDS011;61559;50.476;15.588;2023-02-01T11:32:09;12.40;;;3.60;;
73107;SDS011;61559;50.476;15.588;2023-02-01T11:34:43;7.30;;;2.60;;
73107;SDS011;61559;50.476;15.588;2023-02-01T11:37:18;5.20;;;2.50;;
73107;SDS011;61559;50.476;15.588;2023-02-01T11:39:54;8.10;;;2.90;;
73107;SDS011;61559;50.476;15.588;2023-02-01T11:42:27;9.80;;;3.20;;
73107;SDS011;61559;50.476;15.588;2023-02-01T11:45:17;3.20;;;1.60;;
73107;SDS011;61559;50.476;15.588;2023-02-01T11:47:52;7.60;;;2.80;;
73107;SDS011;61559;50.476;15.588;2023-02-01T11:50:28;5.70;;;2.20;;
73107;SDS011;61559;50.476;15.588;2023-02-01T11:53:12;4.50;;;2.70;;
73107;SDS011;61559;50.476;15.588;2023-02-01T11:55:59;3.80;;;2.20;;
73107;SDS011;61559;50.476;15.588;2023-02-01T12:01:41;5.60;;;2.70;;
73107;SDS011;61559;50.476;15.588;2023-02-01T12:04:43;5.80;;;3.50;;
73107;SDS011;61559;50.476;15.588;2023-02-01T12:07:23;2.20;;;1.40;;
73107;SDS011;61559;50.476;15.588;2023-02-01T12:10:09;2.50;;;1.60;;
73107;SDS011;61559;50.476;15.588;2023-02-01T12:12:56;7.60;;;3.50;;
73107;SDS011;61559;50.476;15.588;2023-02-01T12:15:40;1.90;;;1.40;;
73107;SDS011;61559;50.476;15.588;2023-02-01T12:18:34;5.30;;;2.20;;
73107;SDS011;61559;50.476;15.588;2023-02-01T12:21:26;2.10;;;0.90;;
73107;SDS011;61559;50.476;15.588;2023-02-01T12:24:09;2.50;;;1.40;;
73107;SDS011;61559;50.476;15.588;2023-02-01T12:26:58;2.30;;;1.40;;
73107;SDS011;61559;50.476;15.588;2023-02-01T12:29:43;1.90;;;1.20;;
73107;SDS011;61559;50.476;15.588;2023-02-01T12:32:28;2.30;;;1.20;;
73107;SDS011;61559;50.476;15.588;2023-02-01T12:35:19;2.20;;;1.60;;
73107;SDS011;61559;50.476;15.588;2023-02-01T12:38:12;2.90;;;1.50;;
73107;SDS011;61559;50.476;15.588;2023-02-01T12:41:05;1.90;;;1.70;;
73107;SDS011;61559;50.476;15.588;2023-02-01T12:43:47;3.30;;;1.50;;
73107;SDS011;61559;50.476;15.588;2023-02-01T12:46:25;1.80;;;1.40;;
73107;SDS011;61559;50.476;15.588;2023-02-01T12:49:02;5.30;;;1.90;;
73107;SDS011;61559;50.476;15.588;2023-02-01T12:51:41;2.70;;;1.10;;
73107;SDS011;61559;50.476;15.588;2023-02-01T12:54:18;2.10;;;1.50;;
73107;SDS011;61559;50.476;15.588;2023-02-01T12:56:55;3.00;;;1.60;;
73107;SDS011;61559;50.476;15.588;2023-02-01T12:59:33;5.60;;;2.20;;
73107;SDS011;61559;50.476;15.588;2023-02-01T13:02:09;3.60;;;1.40;;
73107;SDS011;61559;50.476;15.588;2023-02-01T13:04:48;3.00;;;1.60;;
73107;SDS011;61559;50.476;15.588;2023-02-01T13:07:28;1.10;;;1.00;;
73107;SDS011;61559;50.476;15.588;2023-02-01T13:10:05;3.20;;;1.60;;
73107;SDS011;61559;50.476;15.588;2023-02-01T13:12:47;5.20;;;2.20;;
73107;SDS011;61559;50.476;15.588;2023-02-01T13:15:24;1.90;;;1.20;;
73107;SDS011;61559;50.476;15.588;2023-02-01T13:18:00;4.30;;;1.30;;
73107;SDS011;61559;50.476;15.588;2023-02-01T13:20:35;1.50;;;1.30;;
73107;SDS011;61559;50.476;15.588;2023-02-01T13:23:14;4.30;;;2.60;;
73107;SDS011;61559;50.476;15.588;2023-02-01T13:25:56;4.60;;;2.00;;
73107;SDS011;61559;50.476;15.588;2023-02-01T13:28:29;8.00;;;3.10;;
73107;SDS011;61559;50.476;15.588;2023-02-01T13:31:20;6.00;;;2.90;;
73107;SDS011;61559;50.476;15.588;2023-02-01T13:37:31;10.80;;;4.40;;
73107;SDS011;61559;50.476;15.588;2023-02-01T13:40:26;5.40;;;2.60;;
73107;SDS011;61559;50.476;15.588;2023-02-01T13:43:12;10.20;;;2.80;;
73107;SDS011;61559;50.476;15.588;2023-02-01T13:45:47;11.70;;;4.30;;
73107;SDS011;61559;50.476;15.588;2023-02-01T13:48:22;5.20;;;1.80;;
73107;SDS011;61559;50.476;15.588;2023-02-01T13:50:58;24.40;;;12.30;;
73107;SDS011;61559;50.476;15.588;2023-02-01T13:53:30;20.10;;;10.00;;
73107;SDS011;61559;50.476;15.588;2023-02-01T13:56:06;11.70;;;4.80;;
73107;SDS011;61559;50.476;15.588;2023-02-01T13:58:40;4.70;;;2.50;;
73107;SDS011;61559;50.476;15.588;2023-02-01T14:07:20;15.20;;;8.40;;
73107;SDS011;61559;50.476;15.588;2023-02-01T14:09:52;13.00;;;4.20;;
73107;SDS011;61559;50.476;15.588;2023-02-01T14:15:18;4.80;;;2.70;;
73107;SDS011;61559;50.476;15.588;2023-02-01T14:17:52;5.00;;;2.80;;
73107;SDS011;61559;50.476;15.588;2023-02-01T14:23:20;5.30;;;2.20;;
73107;SDS011;61559;50.476;15.588;2023-02-01T14:26:13;4.60;;;2.30;;
73107;SDS011;61559;50.476;15.588;2023-02-01T14:28:55;7.50;;;2.30;;
73107;SDS011;61559;50.476;15.588;2023-02-01T14:31:37;8.40;;;3.30;;
73107;SDS011;61559;50.476;15.588;2023-02-01T14:34:14;10.10;;;3.70;;
73107;SDS011;61559;50.476;15.588;2023-02-01T14:36:52;11.40;;;4.30;;
73107;SDS011;61559;50.476;15.588;2023-02-01T14:39:29;13.70;;;5.10;;
73107;SDS011;61559;50.476;15.588;2023-02-01T14:42:05;12.20;;;4.50;;
73107;SDS011;61559;50.476;15.588;2023-02-01T14:44:50;7.20;;;4.10;;
73107;SDS011;61559;50.476;15.588;2023-02-01T14:50:13;8.70;;;4.00;;
73107;SDS011;61559;50.476;15.588;2023-02-01T14:53:09;10.20;;;4.10;;
73107;SDS011;61559;50.476;15.588;2023-02-01T14:55:48;8.80;;;3.40;;
73107;SDS011;61559;50.476;15.588;2023-02-01T14:58:26;8.80;;;3.20;;
73107;SDS011;61559;50.476;15.588;2023-02-01T15:01:04;6.50;;;2.50;;
73107;SDS011;61559;50.476;15.588;2023-02-01T15:03:55;9.10;;;3.50;;
73107;SDS011;61559;50.476;15.588;2023-02-01T15:06:32;8.30;;;3.20;;
73107;SDS011;61559;50.476;15.588;2023-02-01T15:09:09;13.30;;;4.60;;
73107;SDS011;61559;50.476;15.588;2023-02-01T15:12:00;9.70;;;4.40;;
73107;SDS011;61559;50.476;15.588;2023-02-01T15:14:34;12.20;;;4.40;;
73107;SDS011;61559;50.476;15.588;2023-02-01T15:17:19;55.10;;;18.10;;
73107;SDS011;61559;50.476;15.588;2023-02-01T15:19:55;52.30;;;19.80;;
73107;SDS011;61559;50.476;15.588;2023-02-01T15:22:33;37.20;;;15.00;;
73107;SDS011;61559;50.476;15.588;2023-02-01T15:25:05;15.00;;;6.50;;
73107;SDS011;61559;50.476;15.588;2023-02-01T15:27:47;98.30;;;35.50;;
73107;SDS011;61559;50.476;15.588;2023-02-01T15:32:50;21.50;;;7.60;;
73107;SDS011;61559;50.476;15.588;2023-02-01T15:35:33;47.40;;;15.70;;
73107;SDS011;61559;50.476;15.588;2023-02-01T15:38:27;62.10;;;18.20;;
73107;SDS011;61559;50.476;15.588;2023-02-01T15:41:05;45.90;;;15.00;;
73107;SDS011;61559;50.476;15.588;2023-02-01T15:43:39;19.50;;;7.80;;
73107;SDS011;61559;50.476;15.588;2023-02-01T15:46:13;31.40;;;9.80;;
73107;SDS011;61559;50.476;15.588;2023-02-01T15:48:49;40.00;;;12.40;;
73107;SDS011;61559;50.476;15.588;2023-02-01T15:51:22;35.70;;;12.50;;
73107;SDS011;61559;50.476;15.588;2023-02-01T15:53:57;57.30;;;17.70;;
73107;SDS011;61559;50.476;15.588;2023-02-01T15:56:32;62.30;;;21.40;;
73107;SDS011;61559;50.476;15.588;2023-02-01T15:59:06;70.00;;;25.30;;
73107;SDS011;61559;50.476;15.588;2023-02-01T16:01:45;44.40;;;16.20;;
73107;SDS011;61559;50.476;15.588;2023-02-01T16:04:18;57.00;;;22.80;;
73107;SDS011;61559;50.476;15.588;2023-02-01T16:06:51;49.30;;;15.30;;
73107;SDS011;61559;50.476;15.588;2023-02-01T16:09:24;29.40;;;9.40;;
73107;SDS011;61559;50.476;15.588;2023-02-01T16:12:20;44.10;;;14.00;;
73107;SDS011;61559;50.476;15.588;2023-02-01T16:14:58;52.70;;;15.20;;
73107;SDS011;61559;50.476;15.588;2023-02-01T16:17:29;28.80;;;8.80;;